sensor_id;sensor_type;location;lat;lon;timestamp;P1;durP1;ratioP1;P2;durP2;ratioP2
10269;SDS011;70826;50.930;5.334;2023-08-30T00:00:56;6.57;;;4.15;;
10269;SDS011;70826;50.930;5.334;2023-08-30T00:03:24;4.50;;;4.10;;
10269;SDS011;70826;50.930;5.334;2023-08-30T00:05:53;4.55;;;4.15;;
10269;SDS011;70826;50.930;5.334;2023-08-30T00:08:18;4.93;;;4.43;;
10269;SDS011;70826;50.930;5.334;2023-08-30T00:10:48;4.80;;;4.13;;
10269;SDS011;70826;50.930;5.334;2023-08-30T00:13:16;4.65;;;4.25;;
10269;SDS011;70826;50.930;5.334;2023-08-30T00:15:44;4.40;;;4.00;;
10269;SDS011;70826;50.930;5.334;2023-08-30T00:18:10;5.13;;;4.03;;
10269;SDS011;70826;50.930;5.334;2023-08-30T00:20:41;4.47;;;4.07;;
10269;SDS011;70826;50.930;5.334;2023-08-30T00:23:10;5.70;;;4.30;;
10269;SDS011;70826;50.930;5.334;2023-08-30T00:25:40;4.38;;;3.90;;
10269;SDS011;70826;50.930;5.334;2023-08-30T00:28:05;5.18;;;4.40;;
10269;SDS011;70826;50.930;5.334;2023-08-30T00:30:36;4.78;;;4.38;;
10269;SDS011;70826;50.930;5.334;2023-08-30T00:33:04;4.70;;;4.10;;
10269;SDS011;70826;50.930;5.334;2023-08-30T00:35:34;6.10;;;4.68;;
10269;SDS011;70826;50.930;5.334;2023-08-30T00:38:02;5.03;;;4.63;;
10269;SDS011;70826;50.930;5.334;2023-08-30T00:40:37;5.75;;;4.60;;
10269;SDS011;70826;50.930;5.334;2023-08-30T00:43:05;4.93;;;4.53;;
10269;SDS011;70826;50.930;5.334;2023-08-30T00:45:32;5.28;;;4.78;;
10269;SDS011;70826;50.930;5.334;2023-08-30T00:47:59;5.15;;;4.65;;
10269;SDS011;70826;50.930;5.334;2023-08-30T00:50:29;5.28;;;4.78;;
10269;SDS011;70826;50.930;5.334;2023-08-30T00:52:57;5.38;;;4.88;;
10269;SDS011;70826;50.930;5.334;2023-08-30T00:55:25;5.13;;;4.47;;
10269;SDS011;70826;50.930;5.334;2023-08-30T00:57:50;7.00;;;5.18;;
10269;SDS011;70826;50.930;5.334;2023-08-30T01:00:21;6.15;;;4.72;;
10269;SDS011;70826;50.930;5.334;2023-08-30T01:02:48;4.57;;;4.18;;
10269;SDS011;70826;50.930;5.334;2023-08-30T01:05:17;4.32;;;3.92;;
10269;SDS011;70826;50.930;5.334;2023-08-30T01:07:43;5.15;;;4.18;;
10269;SDS011;70826;50.930;5.334;2023-08-30T01:10:08;5.18;;;4.55;;
10269;SDS011;70826;50.930;5.334;2023-08-30T01:12:55;4.80;;;4.40;;
10269;SDS011;70826;50.930;5.334;2023-08-30T01:15:29;5.53;;;4.78;;
10269;SDS011;70826;50.930;5.334;2023-08-30T01:17:57;4.40;;;4.00;;
10269;SDS011;70826;50.930;5.334;2023-08-30T01:20:32;4.45;;;4.05;;
10269;SDS011;70826;50.930;5.334;2023-08-30T01:25:57;4.80;;;4.18;;
10269;SDS011;70826;50.930;5.334;2023-08-30T01:28:33;4.78;;;4.15;;
10269;SDS011;70826;50.930;5.334;2023-08-30T01:31:07;4.95;;;4.45;;
10269;SDS011;70826;50.930;5.334;2023-08-30T01:33:35;5.43;;;4.45;;
10269;SDS011;70826;50.930;5.334;2023-08-30T01:36:07;4.55;;;4.15;;
10269;SDS011;70826;50.930;5.334;2023-08-30T01:38:36;4.80;;;4.35;;
10269;SDS011;70826;50.930;5.334;2023-08-30T01:41:03;5.03;;;4.47;;
10269;SDS011;70826;50.930;5.334;2023-08-30T01:43:32;4.88;;;4.40;;
10269;SDS011;70826;50.930;5.334;2023-08-30T01:46:01;5.20;;;4.47;;
10269;SDS011;70826;50.930;5.334;2023-08-30T01:48:29;4.72;;;4.32;;
10269;SDS011;70826;50.930;5.334;2023-08-30T01:51:02;4.63;;;4.07;;
10269;SDS011;70826;50.930;5.334;2023-08-30T01:53:31;4.95;;;4.45;;
10269;SDS011;70826;50.930;5.334;2023-08-30T01:55:57;5.70;;;4.45;;
10269;SDS011;70826;50.930;5.334;2023-08-30T01:58:25;6.50;;;4.75;;
10269;SDS011;70826;50.930;5.334;2023-08-30T02:00:53;5.22;;;4.70;;
10269;SDS011;70826;50.930;5.334;2023-08-30T02:03:22;5.35;;;4.35;;
10269;SDS011;70826;50.930;5.334;2023-08-30T02:11:19;6.07;;;4.60;;
10269;SDS011;70826;50.930;5.334;2023-08-30T02:13:48;4.75;;;4.35;;
10269;SDS011;70826;50.930;5.334;2023-08-30T02:16:15;5.13;;;4.63;;
10269;SDS011;70826;50.930;5.334;2023-08-30T02:18:45;5.10;;;4.35;;
10269;SDS011;70826;50.930;5.334;2023-08-30T02:21:13;5.15;;;4.57;;
10269;SDS011;70826;50.930;5.334;2023-08-30T02:23:42;5.20;;;4.70;;
10269;SDS011;70826;50.930;5.334;2023-08-30T02:26:07;6.40;;;4.25;;
10269;SDS011;70826;50.930;5.334;2023-08-30T02:28:33;5.28;;;4.50;;
10269;SDS011;70826;50.930;5.334;2023-08-30T02:31:04;5.07;;;4.57;;
10269;SDS011;70826;50.930;5.334;2023-08-30T02:33:34;5.25;;;4.72;;
10269;SDS011;70826;50.930;5.334;2023-08-30T02:35:59;5.00;;;4.40;;
10269;SDS011;70826;50.930;5.334;2023-08-30T02:38:28;5.82;;;4.88;;
10269;SDS011;70826;50.930;5.334;2023-08-30T02:40:53;4.95;;;4.40;;
10269;SDS011;70826;50.930;5.334;2023-08-30T02:43:23;5.93;;;4.80;;
10269;SDS011;70826;50.930;5.334;2023-08-30T02:45:54;5.68;;;4.80;;
10269;SDS011;70826;50.930;5.334;2023-08-30T02:48:21;4.80;;;4.30;;
10269;SDS011;70826;50.930;5.334;2023-08-30T02:50:47;6.18;;;4.50;;
10269;SDS011;70826;50.930;5.334;2023-08-30T02:53:15;5.03;;;4.53;;
10269;SDS011;70826;50.930;5.334;2023-08-30T02:55:41;4.50;;;4.07;;
10269;SDS011;70826;50.930;5.334;2023-08-30T02:58:06;5.18;;;4.68;;
10269;SDS011;70826;50.930;5.334;2023-08-30T03:00:34;5.30;;;4.78;;
10269;SDS011;70826;50.930;5.334;2023-08-30T03:03:02;5.18;;;4.68;;
10269;SDS011;70826;50.930;5.334;2023-08-30T03:05:30;4.90;;;4.40;;
10269;SDS011;70826;50.930;5.334;2023-08-30T03:07:58;5.25;;;4.63;;
10269;SDS011;70826;50.930;5.334;2023-08-30T03:10:24;5.18;;;4.68;;
10269;SDS011;70826;50.930;5.334;2023-08-30T03:12:54;5.28;;;4.78;;
10269;SDS011;70826;50.930;5.334;2023-08-30T03:15:22;5.88;;;4.80;;
10269;SDS011;70826;50.930;5.334;2023-08-30T03:17:47;5.40;;;4.90;;
10269;SDS011;70826;50.930;5.334;2023-08-30T03:20:15;5.13;;;4.55;;
10269;SDS011;70826;50.930;5.334;2023-08-30T03:22:46;5.30;;;4.80;;
10269;SDS011;70826;50.930;5.334;2023-08-30T03:25:14;5.65;;;5.03;;
10269;SDS011;70826;50.930;5.334;2023-08-30T03:27:45;5.63;;;4.80;;
10269;SDS011;70826;50.930;5.334;2023-08-30T03:30:10;4.95;;;4.53;;
10269;SDS011;70826;50.930;5.334;2023-08-30T03:32:36;5.93;;;4.75;;
10269;SDS011;70826;50.930;5.334;2023-08-30T03:35:02;5.55;;;5.05;;
10269;SDS011;70826;50.930;5.334;2023-08-30T03:37:28;5.55;;;4.90;;
10269;SDS011;70826;50.930;5.334;2023-08-30T03:40:02;5.90;;;5.20;;
10269;SDS011;70826;50.930;5.334;2023-08-30T03:42:29;5.53;;;4.90;;
10269;SDS011;70826;50.930;5.334;2023-08-30T03:44:57;6.20;;;5.20;;
10269;SDS011;70826;50.930;5.334;2023-08-30T03:47:25;6.30;;;5.43;;
10269;SDS011;70826;50.930;5.334;2023-08-30T03:49:55;5.90;;;5.28;;
10269;SDS011;70826;50.930;5.334;2023-08-30T03:52:21;6.03;;;5.05;;
10269;SDS011;70826;50.930;5.334;2023-08-30T03:54:46;5.50;;;5.00;;
10269;SDS011;70826;50.930;5.334;2023-08-30T03:57:17;5.70;;;4.90;;
10269;SDS011;70826;50.930;5.334;2023-08-30T03:59:45;5.20;;;4.70;;
10269;SDS011;70826;50.930;5.334;2023-08-30T04:02:10;5.25;;;4.68;;
10269;SDS011;70826;50.930;5.334;2023-08-30T04:04:36;6.68;;;4.80;;
10269;SDS011;70826;50.930;5.334;2023-08-30T04:07:01;6.85;;;5.07;;
10269;SDS011;70826;50.930;5.334;2023-08-30T04:09:27;7.00;;;5.32;;
10269;SDS011;70826;50.930;5.334;2023-08-30T04:11:57;5.75;;;5.15;;
10269;SDS011;70826;50.930;5.334;2023-08-30T04:14:29;5.68;;;5.15;;
10269;SDS011;70826;50.930;5.334;2023-08-30T04:16:55;5.75;;;5.18;;
10269;SDS011;70826;50.930;5.334;2023-08-30T04:19:21;5.97;;;5.38;;
10269;SDS011;70826;50.930;5.334;2023-08-30T04:21:49;6.38;;;5.78;;
10269;SDS011;70826;50.930;5.334;2023-08-30T04:24:17;6.25;;;5.65;;
10269;SDS011;70826;50.930;5.334;2023-08-30T04:26:42;6.35;;;5.63;;
10269;SDS011;70826;50.930;5.334;2023-08-30T04:29:14;8.48;;;5.82;;
10269;SDS011;70826;50.930;5.334;2023-08-30T04:31:43;6.38;;;5.60;;
10269;SDS011;70826;50.930;5.334;2023-08-30T04:34:08;6.18;;;5.50;;
10269;SDS011;70826;50.930;5.334;2023-08-30T04:36:34;5.88;;;5.30;;
10269;SDS011;70826;50.930;5.334;2023-08-30T04:39:00;6.57;;;5.88;;
10269;SDS011;70826;50.930;5.334;2023-08-30T04:41:25;6.35;;;5.78;;
10269;SDS011;70826;50.930;5.334;2023-08-30T04:43:56;6.43;;;5.78;;
10269;SDS011;70826;50.930;5.334;2023-08-30T04:46:22;6.32;;;5.63;;
10269;SDS011;70826;50.930;5.334;2023-08-30T04:48:52;7.05;;;6.03;;
10269;SDS011;70826;50.930;5.334;2023-08-30T04:51:22;6.43;;;5.82;;
10269;SDS011;70826;50.930;5.334;2023-08-30T04:53:50;6.38;;;5.70;;
10269;SDS011;70826;50.930;5.334;2023-08-30T04:56:18;6.90;;;6.13;;
10269;SDS011;70826;50.930;5.334;2023-08-30T04:58:44;6.18;;;5.57;;
10269;SDS011;70826;50.930;5.334;2023-08-30T05:01:11;6.28;;;5.35;;
10269;SDS011;70826;50.930;5.334;2023-08-30T05:03:38;7.15;;;5.80;;
10269;SDS011;70826;50.930;5.334;2023-08-30T05:06:06;5.88;;;5.28;;
10269;SDS011;70826;50.930;5.334;2023-08-30T05:08:32;6.78;;;6.07;;
10269;SDS011;70826;50.930;5.334;2023-08-30T05:11:00;7.40;;;5.85;;
10269;SDS011;70826;50.930;5.334;2023-08-30T05:13:25;6.57;;;5.57;;
10269;SDS011;70826;50.930;5.334;2023-08-30T05:15:51;6.63;;;5.60;;
10269;SDS011;70826;50.930;5.334;2023-08-30T05:18:19;6.78;;;5.85;;
10269;SDS011;70826;50.930;5.334;2023-08-30T05:20:47;6.38;;;5.55;;
10269;SDS011;70826;50.930;5.334;2023-08-30T05:23:15;6.30;;;5.70;;
10269;SDS011;70826;50.930;5.334;2023-08-30T05:25:40;6.60;;;5.57;;
10269;SDS011;70826;50.930;5.334;2023-08-30T05:28:10;6.20;;;5.60;;
10269;SDS011;70826;50.930;5.334;2023-08-30T05:30:42;6.70;;;5.47;;
10269;SDS011;70826;50.930;5.334;2023-08-30T05:33:11;6.15;;;5.32;;
10269;SDS011;70826;50.930;5.334;2023-08-30T05:35:37;6.20;;;5.30;;
10269;SDS011;70826;50.930;5.334;2023-08-30T05:38:05;6.47;;;5.30;;
10269;SDS011;70826;50.930;5.334;2023-08-30T05:40:30;6.50;;;4.90;;
10269;SDS011;70826;50.930;5.334;2023-08-30T05:42:58;5.97;;;5.38;;
10269;SDS011;70826;50.930;5.334;2023-08-30T05:45:24;5.43;;;4.70;;
10269;SDS011;70826;50.930;5.334;2023-08-30T05:47:54;6.65;;;5.15;;
10269;SDS011;70826;50.930;5.334;2023-08-30T05:50:25;5.40;;;4.90;;
10269;SDS011;70826;50.930;5.334;2023-08-30T05:52:55;5.25;;;4.75;;
10269;SDS011;70826;50.930;5.334;2023-08-30T05:55:22;6.22;;;4.72;;
10269;SDS011;70826;50.930;5.334;2023-08-30T05:57:51;5.20;;;4.70;;
10269;SDS011;70826;50.930;5.334;2023-08-30T06:00:19;4.65;;;4.25;;
10269;SDS011;70826;50.930;5.334;2023-08-30T06:02:53;5.20;;;4.70;;
10269;SDS011;70826;50.930;5.334;2023-08-30T06:05:21;4.95;;;4.40;;
10269;SDS011;70826;50.930;5.334;2023-08-30T06:07:47;5.63;;;4.53;;
10269;SDS011;70826;50.930;5.334;2023-08-30T06:10:12;4.75;;;4.22;;
10269;SDS011;70826;50.930;5.334;2023-08-30T06:12:41;4.63;;;4.22;;
10269;SDS011;70826;50.930;5.334;2023-08-30T06:15:06;4.90;;;4.43;;
10269;SDS011;70826;50.930;5.334;2023-08-30T06:17:37;5.35;;;4.50;;
10269;SDS011;70826;50.930;5.334;2023-08-30T06:20:05;4.93;;;4.43;;
10269;SDS011;70826;50.930;5.334;2023-08-30T06:22:34;4.90;;;4.50;;
10269;SDS011;70826;50.930;5.334;2023-08-30T06:25:02;4.75;;;4.25;;
10269;SDS011;70826;50.930;5.334;2023-08-30T06:27:29;4.97;;;4.47;;
10269;SDS011;70826;50.930;5.334;2023-08-30T06:29:55;4.22;;;3.88;;
10269;SDS011;70826;50.930;5.334;2023-08-30T06:32:23;4.47;;;4.07;;
10269;SDS011;70826;50.930;5.334;2023-08-30T06:34:51;4.40;;;4.00;;
10269;SDS011;70826;50.930;5.334;2023-08-30T06:37:21;4.50;;;4.10;;
10269;SDS011;70826;50.930;5.334;2023-08-30T06:39:49;4.47;;;4.00;;
10269;SDS011;70826;50.930;5.334;2023-08-30T06:42:19;4.75;;;4.00;;
10269;SDS011;70826;50.930;5.334;2023-08-30T06:44:47;4.10;;;3.70;;
10269;SDS011;70826;50.930;5.334;2023-08-30T06:47:15;4.68;;;3.97;;
10269;SDS011;70826;50.930;5.334;2023-08-30T06:49:43;4.28;;;3.88;;
10269;SDS011;70826;50.930;5.334;2023-08-30T06:52:09;4.18;;;3.78;;
10269;SDS011;70826;50.930;5.334;2023-08-30T06:54:37;4.13;;;3.72;;
10269;SDS011;70826;50.930;5.334;2023-08-30T06:57:04;3.70;;;3.30;;
10269;SDS011;70826;50.930;5.334;2023-08-30T06:59:32;3.75;;;3.45;;
10269;SDS011;70826;50.930;5.334;2023-08-30T07:01:58;3.70;;;3.40;;
10269;SDS011;70826;50.930;5.334;2023-08-30T07:04:25;3.80;;;3.40;;
10269;SDS011;70826;50.930;5.334;2023-08-30T07:06:53;3.72;;;3.30;;
10269;SDS011;70826;50.930;5.334;2023-08-30T07:09:21;4.45;;;3.10;;
10269;SDS011;70826;50.930;5.334;2023-08-30T07:11:54;3.63;;;3.33;;
10269;SDS011;70826;50.930;5.334;2023-08-30T07:14:20;3.72;;;3.40;;
10269;SDS011;70826;50.930;5.334;2023-08-30T07:16:47;3.50;;;3.20;;
10269;SDS011;70826;50.930;5.334;2023-08-30T07:19:14;3.10;;;2.80;;
10269;SDS011;70826;50.930;5.334;2023-08-30T07:21:43;3.28;;;2.83;;
10269;SDS011;70826;50.930;5.334;2023-08-30T07:24:13;3.35;;;2.95;;
10269;SDS011;70826;50.930;5.334;2023-08-30T07:26:41;3.95;;;3.08;;
10269;SDS011;70826;50.930;5.334;2023-08-30T07:29:08;3.40;;;3.10;;
10269;SDS011;70826;50.930;5.334;2023-08-30T07:31:36;3.55;;;2.85;;
10269;SDS011;70826;50.930;5.334;2023-08-30T07:34:04;4.28;;;3.03;;
10269;SDS011;70826;50.930;5.334;2023-08-30T07:36:33;3.10;;;2.70;;
10269;SDS011;70826;50.930;5.334;2023-08-30T07:39:01;2.88;;;2.67;;
10269;SDS011;70826;50.930;5.334;2023-08-30T07:41:27;3.40;;;3.03;;
10269;SDS011;70826;50.930;5.334;2023-08-30T07:43:55;3.53;;;3.00;;
10269;SDS011;70826;50.930;5.334;2023-08-30T07:46:23;4.10;;;2.88;;
10269;SDS011;70826;50.930;5.334;2023-08-30T07:48:49;3.05;;;2.75;;
10269;SDS011;70826;50.930;5.334;2023-08-30T07:51:20;2.85;;;2.65;;
10269;SDS011;70826;50.930;5.334;2023-08-30T07:53:46;3.13;;;2.80;;
10269;SDS011;70826;50.930;5.334;2023-08-30T07:56:13;3.22;;;2.83;;
10269;SDS011;70826;50.930;5.334;2023-08-30T07:58:44;3.20;;;2.90;;
10269;SDS011;70826;50.930;5.334;2023-08-30T08:01:09;2.90;;;2.63;;
10269;SDS011;70826;50.930;5.334;2023-08-30T08:03:35;3.03;;;2.80;;
10269;SDS011;70826;50.930;5.334;2023-08-30T08:06:03;3.25;;;2.95;;
10269;SDS011;70826;50.930;5.334;2023-08-30T08:08:28;3.13;;;2.83;;
10269;SDS011;70826;50.930;5.334;2023-08-30T08:10:56;2.97;;;2.70;;
10269;SDS011;70826;50.930;5.334;2023-08-30T08:13:25;2.90;;;2.70;;
10269;SDS011;70826;50.930;5.334;2023-08-30T08:15:55;3.10;;;2.80;;
10269;SDS011;70826;50.930;5.334;2023-08-30T08:18:22;3.05;;;2.78;;
10269;SDS011;70826;50.930;5.334;2023-08-30T08:20:51;3.22;;;2.83;;
10269;SDS011;70826;50.930;5.334;2023-08-30T08:23:16;4.72;;;2.78;;
10269;SDS011;70826;50.930;5.334;2023-08-30T08:25:42;5.07;;;3.33;;
10269;SDS011;70826;50.930;5.334;2023-08-30T08:28:08;11.80;;;4.35;;
10269;SDS011;70826;50.930;5.334;2023-08-30T08:30:38;14.48;;;4.32;;
10269;SDS011;70826;50.930;5.334;2023-08-30T08:33:07;16.00;;;4.45;;
10269;SDS011;70826;50.930;5.334;2023-08-30T08:35:33;14.52;;;4.65;;
10269;SDS011;70826;50.930;5.334;2023-08-30T08:38:00;13.15;;;4.43;;
10269;SDS011;70826;50.930;5.334;2023-08-30T08:40:28;9.73;;;3.83;;
10269;SDS011;70826;50.930;5.334;2023-08-30T08:42:57;8.85;;;3.90;;
10269;SDS011;70826;50.930;5.334;2023-08-30T08:45:23;13.07;;;4.43;;
10269;SDS011;70826;50.930;5.334;2023-08-30T08:47:49;6.88;;;3.85;;
10269;SDS011;70826;50.930;5.334;2023-08-30T08:50:17;6.18;;;3.75;;
10269;SDS011;70826;50.930;5.334;2023-08-30T08:52:43;10.40;;;4.30;;
10269;SDS011;70826;50.930;5.334;2023-08-30T08:55:11;7.88;;;3.58;;
10269;SDS011;70826;50.930;5.334;2023-08-30T08:57:40;5.80;;;3.50;;
10269;SDS011;70826;50.930;5.334;2023-08-30T09:00:09;7.30;;;3.67;;
10269;SDS011;70826;50.930;5.334;2023-08-30T09:02:38;5.68;;;3.17;;
10269;SDS011;70826;50.930;5.334;2023-08-30T09:05:09;5.78;;;3.28;;
10269;SDS011;70826;50.930;5.334;2023-08-30T09:07:35;5.65;;;3.10;;
10269;SDS011;70826;50.930;5.334;2023-08-30T09:10:02;6.72;;;3.10;;
10269;SDS011;70826;50.930;5.334;2023-08-30T09:12:31;4.68;;;3.35;;
10269;SDS011;70826;50.930;5.334;2023-08-30T09:14:57;5.88;;;3.40;;
10269;SDS011;70826;50.930;5.334;2023-08-30T09:17:23;3.70;;;3.10;;
10269;SDS011;70826;50.930;5.334;2023-08-30T09:20:05;5.28;;;3.20;;
10269;SDS011;70826;50.930;5.334;2023-08-30T09:22:40;7.10;;;3.42;;
10269;SDS011;70826;50.930;5.334;2023-08-30T09:25:11;7.05;;;2.97;;
10269;SDS011;70826;50.930;5.334;2023-08-30T09:27:47;6.55;;;3.03;;
10269;SDS011;70826;50.930;5.334;2023-08-30T09:30:12;5.07;;;3.00;;
10269;SDS011;70826;50.930;5.334;2023-08-30T09:32:46;4.43;;;3.22;;
10269;SDS011;70826;50.930;5.334;2023-08-30T09:35:11;5.47;;;3.55;;
10269;SDS011;70826;50.930;5.334;2023-08-30T09:37:40;6.22;;;3.22;;
10269;SDS011;70826;50.930;5.334;2023-08-30T09:40:05;5.20;;;3.20;;
10269;SDS011;70826;50.930;5.334;2023-08-30T09:42:31;5.55;;;3.17;;
10269;SDS011;70826;50.930;5.334;2023-08-30T09:44:57;3.30;;;2.83;;
10269;SDS011;70826;50.930;5.334;2023-08-30T09:47:26;3.67;;;2.53;;
10269;SDS011;70826;50.930;5.334;2023-08-30T09:49:53;3.35;;;2.60;;
10269;SDS011;70826;50.930;5.334;2023-08-30T09:52:23;5.00;;;2.85;;
10269;SDS011;70826;50.930;5.334;2023-08-30T09:54:55;2.80;;;2.60;;
10269;SDS011;70826;50.930;5.334;2023-08-30T09:57:21;4.07;;;2.78;;
10269;SDS011;70826;50.930;5.334;2023-08-30T09:59:48;4.07;;;2.90;;
10269;SDS011;70826;50.930;5.334;2023-08-30T10:02:16;3.90;;;2.65;;
10269;SDS011;70826;50.930;5.334;2023-08-30T10:04:42;4.13;;;2.83;;
10269;SDS011;70826;50.930;5.334;2023-08-30T10:07:12;4.28;;;2.58;;
10269;SDS011;70826;50.930;5.334;2023-08-30T10:09:39;3.17;;;2.75;;
10269;SDS011;70826;50.930;5.334;2023-08-30T10:12:09;4.30;;;2.85;;
10269;SDS011;70826;50.930;5.334;2023-08-30T10:14:39;3.35;;;3.05;;
10269;SDS011;70826;50.930;5.334;2023-08-30T10:17:07;8.18;;;3.15;;
10269;SDS011;70826;50.930;5.334;2023-08-30T10:19:37;3.53;;;3.22;;
10269;SDS011;70826;50.930;5.334;2023-08-30T10:22:04;7.43;;;3.58;;
10269;SDS011;70826;50.930;5.334;2023-08-30T10:24:58;17.48;;;6.55;;
10269;SDS011;70826;50.930;5.334;2023-08-30T10:27:29;41.05;;;16.02;;
10269;SDS011;70826;50.930;5.334;2023-08-30T10:29:58;51.92;;;19.23;;
10269;SDS011;70826;50.930;5.334;2023-08-30T10:32:26;70.80;;;25.88;;
10269;SDS011;70826;50.930;5.334;2023-08-30T10:34:52;64.03;;;24.55;;
10269;SDS011;70826;50.930;5.334;2023-08-30T10:37:26;52.63;;;24.20;;
10269;SDS011;70826;50.930;5.334;2023-08-30T10:40:00;54.42;;;22.20;;
10269;SDS011;70826;50.930;5.334;2023-08-30T10:42:29;50.50;;;20.40;;
10269;SDS011;70826;50.930;5.334;2023-08-30T10:45:02;45.70;;;19.92;;
10269;SDS011;70826;50.930;5.334;2023-08-30T10:47:32;44.72;;;18.55;;
10269;SDS011;70826;50.930;5.334;2023-08-30T10:52:58;38.25;;;16.35;;
10269;SDS011;70826;50.930;5.334;2023-08-30T10:55:24;34.38;;;16.00;;
10269;SDS011;70826;50.930;5.334;2023-08-30T10:58:02;32.33;;;14.65;;
10269;SDS011;70826;50.930;5.334;2023-08-30T11:00:30;29.15;;;14.13;;
10269;SDS011;70826;50.930;5.334;2023-08-30T11:02:58;30.67;;;14.05;;
10269;SDS011;70826;50.930;5.334;2023-08-30T11:05:25;25.63;;;12.95;;
10269;SDS011;70826;50.930;5.334;2023-08-30T11:07:51;27.48;;;12.77;;
10269;SDS011;70826;50.930;5.334;2023-08-30T11:10:18;27.50;;;12.77;;
10269;SDS011;70826;50.930;5.334;2023-08-30T11:12:44;20.33;;;11.00;;
10269;SDS011;70826;50.930;5.334;2023-08-30T11:15:11;25.17;;;11.57;;
10269;SDS011;70826;50.930;5.334;2023-08-30T11:17:39;23.77;;;11.68;;
10269;SDS011;70826;50.930;5.334;2023-08-30T11:20:07;18.95;;;10.65;;
10269;SDS011;70826;50.930;5.334;2023-08-30T11:22:40;19.23;;;10.10;;
10269;SDS011;70826;50.930;5.334;2023-08-30T11:25:07;17.98;;;9.75;;
10269;SDS011;70826;50.930;5.334;2023-08-30T11:27:34;18.98;;;9.80;;
10269;SDS011;70826;50.930;5.334;2023-08-30T11:30:00;16.75;;;9.35;;
10269;SDS011;70826;50.930;5.334;2023-08-30T11:32:36;18.05;;;8.35;;
10269;SDS011;70826;50.930;5.334;2023-08-30T11:35:11;24.27;;;7.90;;
10269;SDS011;70826;50.930;5.334;2023-08-30T11:37:43;15.48;;;7.47;;
10269;SDS011;70826;50.930;5.334;2023-08-30T11:40:13;12.70;;;6.70;;
10269;SDS011;70826;50.930;5.334;2023-08-30T11:42:41;13.55;;;6.72;;
10269;SDS011;70826;50.930;5.334;2023-08-30T11:45:08;11.68;;;6.18;;
10269;SDS011;70826;50.930;5.334;2023-08-30T11:47:37;10.40;;;6.70;;
10269;SDS011;70826;50.930;5.334;2023-08-30T11:50:06;10.85;;;6.47;;
10269;SDS011;70826;50.930;5.334;2023-08-30T11:52:34;10.65;;;6.13;;
10269;SDS011;70826;50.930;5.334;2023-08-30T11:55:04;12.05;;;5.85;;
10269;SDS011;70826;50.930;5.334;2023-08-30T11:57:33;13.45;;;6.07;;
10269;SDS011;70826;50.930;5.334;2023-08-30T12:00:12;10.55;;;5.68;;
10269;SDS011;70826;50.930;5.334;2023-08-30T12:02:41;11.13;;;5.70;;
10269;SDS011;70826;50.930;5.334;2023-08-30T12:05:11;8.43;;;4.95;;
10269;SDS011;70826;50.930;5.334;2023-08-30T12:07:42;8.88;;;4.97;;
10269;SDS011;70826;50.930;5.334;2023-08-30T12:10:13;9.60;;;4.95;;
10269;SDS011;70826;50.930;5.334;2023-08-30T12:12:45;7.68;;;5.25;;
10269;SDS011;70826;50.930;5.334;2023-08-30T12:15:11;7.35;;;4.85;;
10269;SDS011;70826;50.930;5.334;2023-08-30T12:17:43;6.70;;;4.30;;
10269;SDS011;70826;50.930;5.334;2023-08-30T12:20:17;4.70;;;4.20;;
10269;SDS011;70826;50.930;5.334;2023-08-30T12:22:45;5.43;;;4.05;;
10269;SDS011;70826;50.930;5.334;2023-08-30T12:27:49;6.07;;;3.88;;
10269;SDS011;70826;50.930;5.334;2023-08-30T12:30:15;5.50;;;3.45;;
10269;SDS011;70826;50.930;5.334;2023-08-30T12:32:48;4.88;;;3.08;;
10269;SDS011;70826;50.930;5.334;2023-08-30T12:35:30;4.53;;;3.20;;
10269;SDS011;70826;50.930;5.334;2023-08-30T12:37:58;4.70;;;3.22;;
10269;SDS011;70826;50.930;5.334;2023-08-30T12:40:26;4.40;;;3.38;;
10269;SDS011;70826;50.930;5.334;2023-08-30T12:42:56;5.13;;;3.20;;
10269;SDS011;70826;50.930;5.334;2023-08-30T12:45:26;4.32;;;3.20;;
10269;SDS011;70826;50.930;5.334;2023-08-30T12:47:52;3.67;;;3.30;;
10269;SDS011;70826;50.930;5.334;2023-08-30T12:50:17;3.50;;;3.20;;
10269;SDS011;70826;50.930;5.334;2023-08-30T12:52:43;3.90;;;3.47;;
10269;SDS011;70826;50.930;5.334;2023-08-30T12:55:11;4.95;;;3.20;;
10269;SDS011;70826;50.930;5.334;2023-08-30T12:57:42;4.65;;;4.00;;
10269;SDS011;70826;50.930;5.334;2023-08-30T13:00:11;4.32;;;4.00;;
10269;SDS011;70826;50.930;5.334;2023-08-30T13:02:38;4.28;;;3.90;;
10269;SDS011;70826;50.930;5.334;2023-08-30T13:05:06;4.07;;;3.78;;
10269;SDS011;70826;50.930;5.334;2023-08-30T13:07:36;3.83;;;3.53;;
10269;SDS011;70826;50.930;5.334;2023-08-30T13:10:05;4.00;;;3.70;;
10269;SDS011;70826;50.930;5.334;2023-08-30T13:12:31;4.22;;;3.70;;
10269;SDS011;70826;50.930;5.334;2023-08-30T13:14:57;4.05;;;3.65;;
10269;SDS011;70826;50.930;5.334;2023-08-30T13:17:25;6.65;;;3.72;;
10269;SDS011;70826;50.930;5.334;2023-08-30T13:19:53;4.60;;;3.95;;
10269;SDS011;70826;50.930;5.334;2023-08-30T13:22:23;4.78;;;3.65;;
10269;SDS011;70826;50.930;5.334;2023-08-30T13:24:51;4.82;;;3.38;;
10269;SDS011;70826;50.930;5.334;2023-08-30T13:27:17;5.35;;;3.55;;
10269;SDS011;70826;50.930;5.334;2023-08-30T13:29:43;3.58;;;3.28;;
10269;SDS011;70826;50.930;5.334;2023-08-30T13:32:09;3.13;;;2.90;;
10269;SDS011;70826;50.930;5.334;2023-08-30T13:34:35;3.85;;;2.97;;
10269;SDS011;70826;50.930;5.334;2023-08-30T13:37:00;3.08;;;2.78;;
10269;SDS011;70826;50.930;5.334;2023-08-30T13:39:26;4.60;;;3.30;;
10269;SDS011;70826;50.930;5.334;2023-08-30T13:41:52;5.13;;;3.10;;
10269;SDS011;70826;50.930;5.334;2023-08-30T13:44:24;4.25;;;2.85;;
10269;SDS011;70826;50.930;5.334;2023-08-30T13:46:50;3.78;;;3.10;;
10269;SDS011;70826;50.930;5.334;2023-08-30T13:49:16;3.25;;;2.92;;
10269;SDS011;70826;50.930;5.334;2023-08-30T13:51:45;5.40;;;2.70;;
10269;SDS011;70826;50.930;5.334;2023-08-30T13:54:10;4.60;;;2.83;;
10269;SDS011;70826;50.930;5.334;2023-08-30T13:56:38;3.40;;;3.00;;
10269;SDS011;70826;50.930;5.334;2023-08-30T13:59:04;9.85;;;2.97;;
10269;SDS011;70826;50.930;5.334;2023-08-30T14:01:32;7.75;;;3.00;;
10269;SDS011;70826;50.930;5.334;2023-08-30T14:03:59;9.75;;;3.25;;
10269;SDS011;70826;50.930;5.334;2023-08-30T14:06:25;5.28;;;2.97;;
10269;SDS011;70826;50.930;5.334;2023-08-30T14:08:51;6.40;;;2.92;;
10269;SDS011;70826;50.930;5.334;2023-08-30T14:11:19;4.25;;;3.00;;
10269;SDS011;70826;50.930;5.334;2023-08-30T14:13:45;3.38;;;2.60;;
10269;SDS011;70826;50.930;5.334;2023-08-30T14:16:10;3.75;;;2.50;;
10269;SDS011;70826;50.930;5.334;2023-08-30T14:18:36;5.05;;;2.50;;
10269;SDS011;70826;50.930;5.334;2023-08-30T14:21:02;3.10;;;2.40;;
10269;SDS011;70826;50.930;5.334;2023-08-30T14:23:28;3.60;;;2.40;;
10269;SDS011;70826;50.930;5.334;2023-08-30T14:25:58;3.45;;;2.33;;
10269;SDS011;70826;50.930;5.334;2023-08-30T14:28:25;3.70;;;2.10;;
10269;SDS011;70826;50.930;5.334;2023-08-30T14:30:54;3.70;;;2.30;;
10269;SDS011;70826;50.930;5.334;2023-08-30T14:33:19;3.13;;;2.35;;
10269;SDS011;70826;50.930;5.334;2023-08-30T14:35:46;2.88;;;2.30;;
10269;SDS011;70826;50.930;5.334;2023-08-30T14:38:11;4.00;;;2.50;;
10269;SDS011;70826;50.930;5.334;2023-08-30T14:40:37;2.92;;;2.40;;
10269;SDS011;70826;50.930;5.334;2023-08-30T14:43:03;3.70;;;2.40;;
10269;SDS011;70826;50.930;5.334;2023-08-30T14:45:33;3.40;;;2.40;;
10269;SDS011;70826;50.930;5.334;2023-08-30T14:48:03;3.53;;;2.40;;
10269;SDS011;70826;50.930;5.334;2023-08-30T14:50:33;4.10;;;2.42;;
10269;SDS011;70826;50.930;5.334;2023-08-30T14:52:59;3.58;;;2.45;;
10269;SDS011;70826;50.930;5.334;2023-08-30T14:55:27;6.07;;;2.55;;
10269;SDS011;70826;50.930;5.334;2023-08-30T14:57:55;3.72;;;2.50;;
10269;SDS011;70826;50.930;5.334;2023-08-30T15:00:20;3.97;;;2.47;;
10269;SDS011;70826;50.930;5.334;2023-08-30T15:02:48;4.25;;;2.65;;
10269;SDS011;70826;50.930;5.334;2023-08-30T15:05:14;5.68;;;2.63;;